Decoded Metar for KAWO (ARLINGTON MUNI in WA, USA) (IATA:AWO) | Meteo·Mobile Aviation Weather
aviador You're here:

KAWO Decoded Metar

ARLINGTON MUNI in WA, USA
Report Time2018-09-22 10:56:00
UTC Time2018-09-22 11:49:57
Flight Rules vfr VFR
Wind140° at 15 kt
W.Decomp.*RWY 11: 14.6 kt HW 3.4 kt RCW
RWY 16: 12.0 kt HW 9 kt LCW
W.Rank140° ranks 5
Current wind is above 140° avg. (8.7)
Visibility9999 m
Phenomena:N/A
Clouds:Broken 060 Hf
Broken 075 Hf
Overcast 090 Hf
Expected CloudBase > 1,200 ft AGL from Temp-Dew spread
Ceiling6,000 ft
Temp16°C (ISA +1)
Dew Point13°C (83% RH)
AAT11.6°C
QNH1010 hPa
Density Alt591 ft
Elevation138 ft
Report Wrong Elevation
Raw Report
KAWO 221056Z AUTO 14015KT 10SM BKN060 BKN075 OVC090 16/13 A2983
RMK AO2 PK WND 15028/1022 SLP105 T01560133=

Extra information for KAWO:More info

Metar Taf Metar & Taf Last 4 Metars F.Rules Stats Wind Profile Meteogram Temp Stats Airport Information Weather charts Add Link Nearby VenuesMetar ALERT Operation Metar Decoded Social comments

AIRNAV info for KAWO